To NAV CANADA Home Page Login to a new session Search on AWWS site Disclaimer Vers la page française équivalente Tips FAQ What's new on the site To the Forecasts and Observations / NOTAM section To "File a Flight Plan" website Publications and other links Update of the User's profile FIC Telephone Numbers My Weather Data Folder Route Weather Data Regional Weather Data Local Weather Data To the Forecasts and Observations / NOTAM section
Request Generated 04/24/2019 at 16:11:28 UTC . Weather information available at that time is displayed.

METAR/TAF

WIARTON/ON    

METAR CYVV 241600Z 25005KT 230V300 15SM OVC020 05/02 A2998 RMK SC8 SLP160=
METAR CYVV 241500Z 28004KT 15SM OVC020 04/01 A2998 RMK SC8 SLP160=
METAR CYVV 241400Z 31004KT 280V340 15SM OVC020 04/01 A2997 RMK SC8 SLP157=

TAF CYVV 241338Z 2414/2423 31005KT P6SM OVC020 TEMPO 2414/2421 OVC025
BECMG 2416/2418 27010KT
FM242100 28010KT P6SM FEW030
RMK NXT FCST BY 242000Z=
Your time UTC time
Weather data provided by Environment Canada and NAV CANADA